sensor_id;sensor_type;location;lat;lon;timestamp;pressure;altitude;pressure_sealevel;temperature
12061;BMP180;6091;51.432;6.880;2024-03-22T00:02:08;101456.00;;;24.40
12061;BMP180;6091;51.432;6.880;2024-03-22T00:04:37;101452.00;;;24.40
12061;BMP180;6091;51.432;6.880;2024-03-22T00:07:04;101437.00;;;24.40
12061;BMP180;6091;51.432;6.880;2024-03-22T00:09:30;101436.00;;;24.40
12061;BMP180;6091;51.432;6.880;2024-03-22T00:11:56;101431.00;;;24.40
12061;BMP180;6091;51.432;6.880;2024-03-22T00:14:22;101431.00;;;24.40
12061;BMP180;6091;51.432;6.880;2024-03-22T00:16:49;101428.00;;;24.40
12061;BMP180;6091;51.432;6.880;2024-03-22T00:19:16;101422.00;;;24.40
12061;BMP180;6091;51.432;6.880;2024-03-22T00:21:42;101423.00;;;24.40
12061;BMP180;6091;51.432;6.880;2024-03-22T00:24:08;101412.00;;;24.40
12061;BMP180;6091;51.432;6.880;2024-03-22T00:26:35;101426.00;;;24.40
12061;BMP180;6091;51.432;6.880;2024-03-22T00:29:01;101418.00;;;24.40
12061;BMP180;6091;51.432;6.880;2024-03-22T00:31:27;101413.00;;;24.40
12061;BMP180;6091;51.432;6.880;2024-03-22T00:33:53;101406.00;;;24.40
12061;BMP180;6091;51.432;6.880;2024-03-22T00:36:19;101409.00;;;24.40
12061;BMP180;6091;51.432;6.880;2024-03-22T00:38:47;101400.00;;;24.40
12061;BMP180;6091;51.432;6.880;2024-03-22T00:41:13;101401.00;;;24.40
12061;BMP180;6091;51.432;6.880;2024-03-22T00:43:39;101394.00;;;24.40
12061;BMP180;6091;51.432;6.880;2024-03-22T00:46:05;101389.00;;;24.40
12061;BMP180;6091;51.432;6.880;2024-03-22T00:48:32;101383.00;;;24.40
12061;BMP180;6091;51.432;6.880;2024-03-22T00:50:58;101380.00;;;24.30
12061;BMP180;6091;51.432;6.880;2024-03-22T00:53:24;101377.00;;;24.30
12061;BMP180;6091;51.432;6.880;2024-03-22T00:55:50;101378.00;;;24.30
12061;BMP180;6091;51.432;6.880;2024-03-22T00:58:20;101370.00;;;24.30
12061;BMP180;6091;51.432;6.880;2024-03-22T01:00:47;101371.00;;;24.30
12061;BMP180;6091;51.432;6.880;2024-03-22T01:03:13;101369.00;;;24.30
12061;BMP180;6091;51.432;6.880;2024-03-22T01:05:39;101367.00;;;24.30
12061;BMP180;6091;51.432;6.880;2024-03-22T01:08:06;101359.00;;;24.30
12061;BMP180;6091;51.432;6.880;2024-03-22T01:10:33;101364.00;;;24.30
12061;BMP180;6091;51.432;6.880;2024-03-22T01:13:00;101363.00;;;24.30
12061;BMP180;6091;51.432;6.880;2024-03-22T01:15:26;101363.00;;;24.30
12061;BMP180;6091;51.432;6.880;2024-03-22T01:17:55;101350.00;;;24.30
12061;BMP180;6091;51.432;6.880;2024-03-22T01:20:21;101346.00;;;24.30
12061;BMP180;6091;51.432;6.880;2024-03-22T01:22:48;101350.00;;;24.30
12061;BMP180;6091;51.432;6.880;2024-03-22T01:25:15;101342.00;;;24.30
12061;BMP180;6091;51.432;6.880;2024-03-22T01:27:41;101336.00;;;24.30
12061;BMP180;6091;51.432;6.880;2024-03-22T01:30:07;101326.00;;;24.30
12061;BMP180;6091;51.432;6.880;2024-03-22T01:32:36;101326.00;;;24.30
12061;BMP180;6091;51.432;6.880;2024-03-22T01:35:03;101324.00;;;24.30
12061;BMP180;6091;51.432;6.880;2024-03-22T01:37:29;101325.00;;;24.30
12061;BMP180;6091;51.432;6.880;2024-03-22T01:39:55;101310.00;;;24.30
12061;BMP180;6091;51.432;6.880;2024-03-22T01:42:21;101306.00;;;24.20
12061;BMP180;6091;51.432;6.880;2024-03-22T01:44:49;101312.00;;;24.30
12061;BMP180;6091;51.432;6.880;2024-03-22T01:47:16;101304.00;;;24.20
12061;BMP180;6091;51.432;6.880;2024-03-22T01:49:43;101299.00;;;24.20
12061;BMP180;6091;51.432;6.880;2024-03-22T01:52:10;101294.00;;;24.20
12061;BMP180;6091;51.432;6.880;2024-03-22T01:54:36;101293.00;;;24.20
12061;BMP180;6091;51.432;6.880;2024-03-22T01:57:02;101291.00;;;24.20
12061;BMP180;6091;51.432;6.880;2024-03-22T01:59:30;101286.00;;;24.20
12061;BMP180;6091;51.432;6.880;2024-03-22T02:01:56;101277.00;;;24.20
12061;BMP180;6091;51.432;6.880;2024-03-22T02:04:22;101279.00;;;24.20
12061;BMP180;6091;51.432;6.880;2024-03-22T02:06:49;101280.00;;;24.20
12061;BMP180;6091;51.432;6.880;2024-03-22T02:09:15;101273.00;;;24.20
12061;BMP180;6091;51.432;6.880;2024-03-22T02:11:42;101279.00;;;24.20
12061;BMP180;6091;51.432;6.880;2024-03-22T02:14:09;101266.00;;;24.20
12061;BMP180;6091;51.432;6.880;2024-03-22T02:16:35;101276.00;;;24.20
12061;BMP180;6091;51.432;6.880;2024-03-22T02:19:02;101270.00;;;24.20
12061;BMP180;6091;51.432;6.880;2024-03-22T02:21:28;101257.00;;;24.20
12061;BMP180;6091;51.432;6.880;2024-03-22T02:23:54;101261.00;;;24.20
12061;BMP180;6091;51.432;6.880;2024-03-22T02:26:20;101261.00;;;24.20
12061;BMP180;6091;51.432;6.880;2024-03-22T02:28:46;101260.00;;;24.20
12061;BMP180;6091;51.432;6.880;2024-03-22T02:31:12;101254.00;;;24.20
12061;BMP180;6091;51.432;6.880;2024-03-22T02:33:38;101245.00;;;24.20
12061;BMP180;6091;51.432;6.880;2024-03-22T02:36:05;101246.00;;;24.20
12061;BMP180;6091;51.432;6.880;2024-03-22T02:38:31;101240.00;;;24.20
12061;BMP180;6091;51.432;6.880;2024-03-22T02:40:58;101241.00;;;24.20
12061;BMP180;6091;51.432;6.880;2024-03-22T02:43:24;101241.00;;;24.20
12061;BMP180;6091;51.432;6.880;2024-03-22T02:45:51;101235.00;;;24.20
12061;BMP180;6091;51.432;6.880;2024-03-22T02:48:17;101241.00;;;24.20
12061;BMP180;6091;51.432;6.880;2024-03-22T02:50:43;101226.00;;;24.20
12061;BMP180;6091;51.432;6.880;2024-03-22T02:53:09;101220.00;;;24.20
12061;BMP180;6091;51.432;6.880;2024-03-22T02:55:39;101227.00;;;24.20
12061;BMP180;6091;51.432;6.880;2024-03-22T02:58:09;101225.00;;;24.20
12061;BMP180;6091;51.432;6.880;2024-03-22T03:00:37;101213.00;;;24.20
12061;BMP180;6091;51.432;6.880;2024-03-22T03:03:05;101206.00;;;24.20
12061;BMP180;6091;51.432;6.880;2024-03-22T03:05:32;101200.00;;;24.10
12061;BMP180;6091;51.432;6.880;2024-03-22T03:07:59;101195.00;;;24.20
12061;BMP180;6091;51.432;6.880;2024-03-22T03:10:25;101200.00;;;24.10
12061;BMP180;6091;51.432;6.880;2024-03-22T03:12:55;101194.00;;;24.20
12061;BMP180;6091;51.432;6.880;2024-03-22T03:15:21;101188.00;;;24.10
12061;BMP180;6091;51.432;6.880;2024-03-22T03:17:47;101188.00;;;24.10
12061;BMP180;6091;51.432;6.880;2024-03-22T03:20:13;101195.00;;;24.10
12061;BMP180;6091;51.432;6.880;2024-03-22T03:22:42;101187.00;;;24.10
12061;BMP180;6091;51.432;6.880;2024-03-22T03:25:11;101183.00;;;24.10
12061;BMP180;6091;51.432;6.880;2024-03-22T03:27:38;101186.00;;;24.10
12061;BMP180;6091;51.432;6.880;2024-03-22T03:30:04;101188.00;;;24.10
12061;BMP180;6091;51.432;6.880;2024-03-22T03:32:31;101185.00;;;24.10
12061;BMP180;6091;51.432;6.880;2024-03-22T03:34:57;101181.00;;;24.10
12061;BMP180;6091;51.432;6.880;2024-03-22T03:37:26;101175.00;;;24.10
12061;BMP180;6091;51.432;6.880;2024-03-22T03:39:52;101170.00;;;24.10
12061;BMP180;6091;51.432;6.880;2024-03-22T03:42:18;101167.00;;;24.10
12061;BMP180;6091;51.432;6.880;2024-03-22T03:44:44;101163.00;;;24.10
12061;BMP180;6091;51.432;6.880;2024-03-22T03:47:10;101164.00;;;24.10
12061;BMP180;6091;51.432;6.880;2024-03-22T03:49:36;101159.00;;;24.10
12061;BMP180;6091;51.432;6.880;2024-03-22T03:52:03;101150.00;;;24.10
12061;BMP180;6091;51.432;6.880;2024-03-22T03:54:29;101149.00;;;24.10
12061;BMP180;6091;51.432;6.880;2024-03-22T03:56:55;101147.00;;;24.10
12061;BMP180;6091;51.432;6.880;2024-03-22T03:59:24;101140.00;;;24.10
12061;BMP180;6091;51.432;6.880;2024-03-22T04:01:50;101130.00;;;24.10
12061;BMP180;6091;51.432;6.880;2024-03-22T04:04:16;101132.00;;;24.10
12061;BMP180;6091;51.432;6.880;2024-03-22T04:06:44;101124.00;;;24.10
12061;BMP180;6091;51.432;6.880;2024-03-22T04:09:10;101119.00;;;24.10
12061;BMP180;6091;51.432;6.880;2024-03-22T04:11:37;101119.00;;;24.10
12061;BMP180;6091;51.432;6.880;2024-03-22T04:14:05;101104.00;;;24.00
12061;BMP180;6091;51.432;6.880;2024-03-22T04:16:32;101108.00;;;24.00
12061;BMP180;6091;51.432;6.880;2024-03-22T04:18:58;101103.00;;;24.00
12061;BMP180;6091;51.432;6.880;2024-03-22T04:21:24;101103.00;;;24.00
12061;BMP180;6091;51.432;6.880;2024-03-22T04:23:50;101101.00;;;24.00
12061;BMP180;6091;51.432;6.880;2024-03-22T04:26:17;101104.00;;;24.00
12061;BMP180;6091;51.432;6.880;2024-03-22T04:28:43;101100.00;;;24.00
12061;BMP180;6091;51.432;6.880;2024-03-22T04:31:09;101090.00;;;24.00
12061;BMP180;6091;51.432;6.880;2024-03-22T04:33:37;101084.00;;;24.00
12061;BMP180;6091;51.432;6.880;2024-03-22T04:36:04;101079.00;;;24.00
12061;BMP180;6091;51.432;6.880;2024-03-22T04:38:31;101087.00;;;24.00
12061;BMP180;6091;51.432;6.880;2024-03-22T04:40:57;101087.00;;;24.00
12061;BMP180;6091;51.432;6.880;2024-03-22T04:43:24;101087.00;;;24.00
12061;BMP180;6091;51.432;6.880;2024-03-22T04:45:51;101077.00;;;24.00
12061;BMP180;6091;51.432;6.880;2024-03-22T04:48:19;101078.00;;;24.00
12061;BMP180;6091;51.432;6.880;2024-03-22T04:50:51;101076.00;;;24.00
12061;BMP180;6091;51.432;6.880;2024-03-22T04:53:19;101070.00;;;24.00
12061;BMP180;6091;51.432;6.880;2024-03-22T04:55:48;101076.00;;;24.00
12061;BMP180;6091;51.432;6.880;2024-03-22T04:58:19;101071.00;;;24.00
12061;BMP180;6091;51.432;6.880;2024-03-22T05:00:46;101066.00;;;24.00
12061;BMP180;6091;51.432;6.880;2024-03-22T05:03:13;101072.00;;;24.00
12061;BMP180;6091;51.432;6.880;2024-03-22T05:05:40;101074.00;;;24.00
12061;BMP180;6091;51.432;6.880;2024-03-22T05:08:07;101074.00;;;24.00
12061;BMP180;6091;51.432;6.880;2024-03-22T05:10:34;101070.00;;;24.00
12061;BMP180;6091;51.432;6.880;2024-03-22T05:13:00;101064.00;;;24.00
12061;BMP180;6091;51.432;6.880;2024-03-22T05:15:27;101057.00;;;24.00
12061;BMP180;6091;51.432;6.880;2024-03-22T05:17:57;101052.00;;;24.00
12061;BMP180;6091;51.432;6.880;2024-03-22T05:20:23;101062.00;;;24.00
12061;BMP180;6091;51.432;6.880;2024-03-22T05:22:49;101062.00;;;24.00
12061;BMP180;6091;51.432;6.880;2024-03-22T05:25:16;101069.00;;;24.00
12061;BMP180;6091;51.432;6.880;2024-03-22T05:27:42;101069.00;;;24.00
12061;BMP180;6091;51.432;6.880;2024-03-22T05:30:10;101073.00;;;24.00
12061;BMP180;6091;51.432;6.880;2024-03-22T05:32:37;101068.00;;;24.00
12061;BMP180;6091;51.432;6.880;2024-03-22T05:35:04;101068.00;;;24.00
12061;BMP180;6091;51.432;6.880;2024-03-22T05:37:31;101065.00;;;24.00
12061;BMP180;6091;51.432;6.880;2024-03-22T05:39:57;101063.00;;;23.90
12061;BMP180;6091;51.432;6.880;2024-03-22T05:42:23;101060.00;;;23.90
12061;BMP180;6091;51.432;6.880;2024-03-22T05:44:49;101066.00;;;23.90
12061;BMP180;6091;51.432;6.880;2024-03-22T05:47:15;101058.00;;;23.90
12061;BMP180;6091;51.432;6.880;2024-03-22T05:49:41;101060.00;;;24.00
12061;BMP180;6091;51.432;6.880;2024-03-22T05:52:07;101052.00;;;23.90
12061;BMP180;6091;51.432;6.880;2024-03-22T05:54:33;101055.00;;;24.00
12061;BMP180;6091;51.432;6.880;2024-03-22T05:56:59;101056.00;;;23.90
12061;BMP180;6091;51.432;6.880;2024-03-22T05:59:28;101050.00;;;23.90
12061;BMP180;6091;51.432;6.880;2024-03-22T06:01:54;101046.00;;;23.90
12061;BMP180;6091;51.432;6.880;2024-03-22T06:04:20;101043.00;;;24.00
12061;BMP180;6091;51.432;6.880;2024-03-22T06:06:46;101035.00;;;24.00
12061;BMP180;6091;51.432;6.880;2024-03-22T06:09:12;101030.00;;;24.00
12061;BMP180;6091;51.432;6.880;2024-03-22T06:11:39;101038.00;;;24.00
12061;BMP180;6091;51.432;6.880;2024-03-22T06:14:09;101039.00;;;24.10
12061;BMP180;6091;51.432;6.880;2024-03-22T06:16:35;101044.00;;;24.20
12061;BMP180;6091;51.432;6.880;2024-03-22T06:19:01;101046.00;;;24.20
12061;BMP180;6091;51.432;6.880;2024-03-22T06:21:29;101038.00;;;24.30
12061;BMP180;6091;51.432;6.880;2024-03-22T06:23:55;101039.00;;;24.40
12061;BMP180;6091;51.432;6.880;2024-03-22T06:26:21;101042.00;;;24.50
12061;BMP180;6091;51.432;6.880;2024-03-22T06:28:47;101042.00;;;24.60
12061;BMP180;6091;51.432;6.880;2024-03-22T06:31:13;101042.00;;;24.70
12061;BMP180;6091;51.432;6.880;2024-03-22T06:33:39;101042.00;;;24.80
12061;BMP180;6091;51.432;6.880;2024-03-22T06:36:05;101040.00;;;24.90
12061;BMP180;6091;51.432;6.880;2024-03-22T06:38:31;101031.00;;;24.90
12061;BMP180;6091;51.432;6.880;2024-03-22T06:40:57;101026.00;;;25.00
12061;BMP180;6091;51.432;6.880;2024-03-22T06:43:25;101031.00;;;25.10
12061;BMP180;6091;51.432;6.880;2024-03-22T06:45:51;101026.00;;;25.20
12061;BMP180;6091;51.432;6.880;2024-03-22T06:48:17;101020.00;;;25.20
12061;BMP180;6091;51.432;6.880;2024-03-22T06:50:43;101022.00;;;25.30
12061;BMP180;6091;51.432;6.880;2024-03-22T06:53:13;101024.00;;;25.30
12061;BMP180;6091;51.432;6.880;2024-03-22T06:55:39;101023.00;;;25.40
12061;BMP180;6091;51.432;6.880;2024-03-22T06:58:05;101025.00;;;25.40
12061;BMP180;6091;51.432;6.880;2024-03-22T07:00:33;101024.00;;;25.50
12061;BMP180;6091;51.432;6.880;2024-03-22T07:03:05;101029.00;;;25.50
12061;BMP180;6091;51.432;6.880;2024-03-22T07:05:31;101027.00;;;25.50
12061;BMP180;6091;51.432;6.880;2024-03-22T07:07:57;101036.00;;;25.50
12061;BMP180;6091;51.432;6.880;2024-03-22T07:10:24;101035.00;;;25.60
12061;BMP180;6091;51.432;6.880;2024-03-22T07:12:56;101032.00;;;25.60
12061;BMP180;6091;51.432;6.880;2024-03-22T07:15:24;101036.00;;;25.60
12061;BMP180;6091;51.432;6.880;2024-03-22T07:17:50;101038.00;;;25.70
12061;BMP180;6091;51.432;6.880;2024-03-22T07:20:17;101032.00;;;25.70
12061;BMP180;6091;51.432;6.880;2024-03-22T07:22:44;101039.00;;;25.70
12061;BMP180;6091;51.432;6.880;2024-03-22T07:25:11;101037.00;;;25.70
12061;BMP180;6091;51.432;6.880;2024-03-22T07:27:37;101035.00;;;25.70
12061;BMP180;6091;51.432;6.880;2024-03-22T07:30:04;101039.00;;;25.70
12061;BMP180;6091;51.432;6.880;2024-03-22T07:32:31;101042.00;;;25.70
12061;BMP180;6091;51.432;6.880;2024-03-22T07:34:58;101029.00;;;25.70
12061;BMP180;6091;51.432;6.880;2024-03-22T07:37:24;101022.00;;;25.70
12061;BMP180;6091;51.432;6.880;2024-03-22T07:39:50;101021.00;;;25.70
12061;BMP180;6091;51.432;6.880;2024-03-22T07:42:18;101010.00;;;25.80
12061;BMP180;6091;51.432;6.880;2024-03-22T07:44:45;101010.00;;;25.80
12061;BMP180;6091;51.432;6.880;2024-03-22T07:47:11;101003.00;;;25.80
12061;BMP180;6091;51.432;6.880;2024-03-22T07:49:40;101003.00;;;25.80
12061;BMP180;6091;51.432;6.880;2024-03-22T07:52:06;101009.00;;;25.80
12061;BMP180;6091;51.432;6.880;2024-03-22T07:54:34;101012.00;;;25.80
12061;BMP180;6091;51.432;6.880;2024-03-22T07:57:00;101015.00;;;25.80
12061;BMP180;6091;51.432;6.880;2024-03-22T07:59:26;101017.00;;;25.80
12061;BMP180;6091;51.432;6.880;2024-03-22T08:01:52;101023.00;;;25.80
12061;BMP180;6091;51.432;6.880;2024-03-22T08:04:18;101026.00;;;26.10
12061;BMP180;6091;51.432;6.880;2024-03-22T08:06:45;101026.00;;;26.00
12061;BMP180;6091;51.432;6.880;2024-03-22T08:09:13;101028.00;;;25.90
12061;BMP180;6091;51.432;6.880;2024-03-22T08:11:39;101013.00;;;25.90
12061;BMP180;6091;51.432;6.880;2024-03-22T08:14:08;101017.00;;;25.90
12061;BMP180;6091;51.432;6.880;2024-03-22T08:16:34;101011.00;;;25.90
12061;BMP180;6091;51.432;6.880;2024-03-22T08:19:02;101014.00;;;25.90
12061;BMP180;6091;51.432;6.880;2024-03-22T08:21:28;101014.00;;;25.90
12061;BMP180;6091;51.432;6.880;2024-03-22T08:23:54;101010.00;;;25.90
12061;BMP180;6091;51.432;6.880;2024-03-22T08:26:21;101005.00;;;25.90
12061;BMP180;6091;51.432;6.880;2024-03-22T08:28:48;101012.00;;;25.90
12061;BMP180;6091;51.432;6.880;2024-03-22T08:31:14;101007.00;;;26.00
12061;BMP180;6091;51.432;6.880;2024-03-22T08:33:41;101007.00;;;25.90
12061;BMP180;6091;51.432;6.880;2024-03-22T08:36:08;101005.00;;;26.00
12061;BMP180;6091;51.432;6.880;2024-03-22T08:38:34;100996.00;;;26.20
12061;BMP180;6091;51.432;6.880;2024-03-22T08:41:00;101005.00;;;26.10
12061;BMP180;6091;51.432;6.880;2024-03-22T08:43:26;100990.00;;;26.00
12061;BMP180;6091;51.432;6.880;2024-03-22T08:45:55;100999.00;;;26.10
12061;BMP180;6091;51.432;6.880;2024-03-22T08:48:22;100995.00;;;26.10
12061;BMP180;6091;51.432;6.880;2024-03-22T08:50:48;100996.00;;;26.20
12061;BMP180;6091;51.432;6.880;2024-03-22T08:53:14;100997.00;;;26.10
12061;BMP180;6091;51.432;6.880;2024-03-22T08:55:47;100989.00;;;26.10
12061;BMP180;6091;51.432;6.880;2024-03-22T08:58:15;100991.00;;;26.10
12061;BMP180;6091;51.432;6.880;2024-03-22T09:00:41;100996.00;;;26.10
12061;BMP180;6091;51.432;6.880;2024-03-22T09:03:08;100987.00;;;26.10
12061;BMP180;6091;51.432;6.880;2024-03-22T09:05:34;100993.00;;;26.20
12061;BMP180;6091;51.432;6.880;2024-03-22T09:08:00;100988.00;;;26.20
12061;BMP180;6091;51.432;6.880;2024-03-22T09:10:27;100980.00;;;26.20
12061;BMP180;6091;51.432;6.880;2024-03-22T09:12:54;100976.00;;;26.20
12061;BMP180;6091;51.432;6.880;2024-03-22T09:15:27;100987.00;;;26.20
12061;BMP180;6091;51.432;6.880;2024-03-22T09:17:53;100973.00;;;26.20
12061;BMP180;6091;51.432;6.880;2024-03-22T09:20:20;100972.00;;;26.20
12061;BMP180;6091;51.432;6.880;2024-03-22T09:22:46;100971.00;;;26.20
12061;BMP180;6091;51.432;6.880;2024-03-22T09:25:12;100966.00;;;26.20
12061;BMP180;6091;51.432;6.880;2024-03-22T09:27:38;100965.00;;;26.30
12061;BMP180;6091;51.432;6.880;2024-03-22T09:30:06;100966.00;;;26.30
12061;BMP180;6091;51.432;6.880;2024-03-22T09:32:32;100963.00;;;26.30
12061;BMP180;6091;51.432;6.880;2024-03-22T09:34:59;100969.00;;;26.30
12061;BMP180;6091;51.432;6.880;2024-03-22T09:37:25;100964.00;;;26.40
12061;BMP180;6091;51.432;6.880;2024-03-22T09:39:52;100953.00;;;26.30
12061;BMP180;6091;51.432;6.880;2024-03-22T09:42:19;100951.00;;;26.20
12061;BMP180;6091;51.432;6.880;2024-03-22T09:44:49;100954.00;;;26.00
12061;BMP180;6091;51.432;6.880;2024-03-22T09:47:18;100951.00;;;25.80
12061;BMP180;6091;51.432;6.880;2024-03-22T09:49:44;100950.00;;;25.60
12061;BMP180;6091;51.432;6.880;2024-03-22T09:52:14;100957.00;;;25.60
12061;BMP180;6091;51.432;6.880;2024-03-22T09:54:44;100949.00;;;25.50
12061;BMP180;6091;51.432;6.880;2024-03-22T09:57:15;100953.00;;;25.60
12061;BMP180;6091;51.432;6.880;2024-03-22T09:59:47;100951.00;;;25.60
12061;BMP180;6091;51.432;6.880;2024-03-22T10:02:13;100940.00;;;25.70
12061;BMP180;6091;51.432;6.880;2024-03-22T10:04:40;100936.00;;;25.70
12061;BMP180;6091;51.432;6.880;2024-03-22T10:07:08;100922.00;;;25.80
12061;BMP180;6091;51.432;6.880;2024-03-22T10:09:37;100920.00;;;25.90
12061;BMP180;6091;51.432;6.880;2024-03-22T10:12:04;100913.00;;;25.90
12061;BMP180;6091;51.432;6.880;2024-03-22T10:14:30;100916.00;;;26.00
12061;BMP180;6091;51.432;6.880;2024-03-22T10:16:58;100915.00;;;26.20
12061;BMP180;6091;51.432;6.880;2024-03-22T10:19:24;100919.00;;;26.20
12061;BMP180;6091;51.432;6.880;2024-03-22T10:24:28;100900.00;;;26.20
12061;BMP180;6091;51.432;6.880;2024-03-22T10:26:54;100909.00;;;26.30
12061;BMP180;6091;51.432;6.880;2024-03-22T10:29:21;100905.00;;;26.30
12061;BMP180;6091;51.432;6.880;2024-03-22T10:31:53;100904.00;;;26.30
12061;BMP180;6091;51.432;6.880;2024-03-22T10:34:21;100895.00;;;26.40
12061;BMP180;6091;51.432;6.880;2024-03-22T10:36:49;100899.00;;;26.40
12061;BMP180;6091;51.432;6.880;2024-03-22T10:39:18;100900.00;;;26.40
12061;BMP180;6091;51.432;6.880;2024-03-22T10:41:46;100896.00;;;26.50
12061;BMP180;6091;51.432;6.880;2024-03-22T10:44:12;100898.00;;;26.50
12061;BMP180;6091;51.432;6.880;2024-03-22T10:46:45;100893.00;;;26.50
12061;BMP180;6091;51.432;6.880;2024-03-22T10:49:26;100889.00;;;26.50
12061;BMP180;6091;51.432;6.880;2024-03-22T10:51:58;100886.00;;;26.60
12061;BMP180;6091;51.432;6.880;2024-03-22T10:54:40;100888.00;;;26.60
12061;BMP180;6091;51.432;6.880;2024-03-22T10:57:14;100885.00;;;26.60
12061;BMP180;6091;51.432;6.880;2024-03-22T10:59:42;100885.00;;;26.70
12061;BMP180;6091;51.432;6.880;2024-03-22T11:02:11;100873.00;;;26.70
12061;BMP180;6091;51.432;6.880;2024-03-22T11:04:37;100874.00;;;26.80
12061;BMP180;6091;51.432;6.880;2024-03-22T11:07:04;100871.00;;;26.80
12061;BMP180;6091;51.432;6.880;2024-03-22T11:09:31;100876.00;;;26.80
12061;BMP180;6091;51.432;6.880;2024-03-22T11:11:57;100875.00;;;26.90
12061;BMP180;6091;51.432;6.880;2024-03-22T11:14:25;100872.00;;;26.90
12061;BMP180;6091;51.432;6.880;2024-03-22T11:16:52;100867.00;;;27.00
12061;BMP180;6091;51.432;6.880;2024-03-22T11:19:19;100867.00;;;27.00
12061;BMP180;6091;51.432;6.880;2024-03-22T11:21:46;100868.00;;;27.00
12061;BMP180;6091;51.432;6.880;2024-03-22T11:24:13;100870.00;;;27.00
12061;BMP180;6091;51.432;6.880;2024-03-22T11:26:42;100869.00;;;27.10
12061;BMP180;6091;51.432;6.880;2024-03-22T11:29:10;100874.00;;;27.00
12061;BMP180;6091;51.432;6.880;2024-03-22T11:31:37;100873.00;;;27.00
12061;BMP180;6091;51.432;6.880;2024-03-22T11:34:07;100869.00;;;27.00
12061;BMP180;6091;51.432;6.880;2024-03-22T11:36:35;100864.00;;;27.00
12061;BMP180;6091;51.432;6.880;2024-03-22T11:39:01;100852.00;;;26.90
12061;BMP180;6091;51.432;6.880;2024-03-22T11:41:31;100862.00;;;26.90
12061;BMP180;6091;51.432;6.880;2024-03-22T11:44:00;100861.00;;;26.80
12061;BMP180;6091;51.432;6.880;2024-03-22T11:46:27;100873.00;;;26.80
12061;BMP180;6091;51.432;6.880;2024-03-22T11:48:54;100864.00;;;26.80
12061;BMP180;6091;51.432;6.880;2024-03-22T11:51:21;100870.00;;;26.70
12061;BMP180;6091;51.432;6.880;2024-03-22T11:53:53;100869.00;;;26.70
12061;BMP180;6091;51.432;6.880;2024-03-22T11:56:22;100865.00;;;26.70
12061;BMP180;6091;51.432;6.880;2024-03-22T11:58:49;100863.00;;;26.60
12061;BMP180;6091;51.432;6.880;2024-03-22T12:01:23;100867.00;;;26.60
12061;BMP180;6091;51.432;6.880;2024-03-22T12:03:49;100863.00;;;26.60
12061;BMP180;6091;51.432;6.880;2024-03-22T12:06:16;100859.00;;;26.50
12061;BMP180;6091;51.432;6.880;2024-03-22T12:08:42;100855.00;;;26.50
12061;BMP180;6091;51.432;6.880;2024-03-22T12:11:10;100860.00;;;26.50
12061;BMP180;6091;51.432;6.880;2024-03-22T12:13:38;100859.00;;;26.40
12061;BMP180;6091;51.432;6.880;2024-03-22T12:16:05;100856.00;;;26.40
12061;BMP180;6091;51.432;6.880;2024-03-22T12:18:33;100859.00;;;26.40
12061;BMP180;6091;51.432;6.880;2024-03-22T12:21:00;100866.00;;;26.30
12061;BMP180;6091;51.432;6.880;2024-03-22T12:23:26;100857.00;;;26.30
12061;BMP180;6091;51.432;6.880;2024-03-22T12:25:53;100848.00;;;26.30
12061;BMP180;6091;51.432;6.880;2024-03-22T12:28:21;100855.00;;;26.30
12061;BMP180;6091;51.432;6.880;2024-03-22T12:30:49;100848.00;;;26.30
12061;BMP180;6091;51.432;6.880;2024-03-22T12:33:16;100854.00;;;26.20
12061;BMP180;6091;51.432;6.880;2024-03-22T12:35:42;100857.00;;;26.20
12061;BMP180;6091;51.432;6.880;2024-03-22T12:38:09;100848.00;;;26.20
12061;BMP180;6091;51.432;6.880;2024-03-22T12:40:38;100846.00;;;26.20
12061;BMP180;6091;51.432;6.880;2024-03-22T12:43:05;100844.00;;;26.20
12061;BMP180;6091;51.432;6.880;2024-03-22T12:45:32;100844.00;;;26.20
12061;BMP180;6091;51.432;6.880;2024-03-22T12:48:00;100836.00;;;26.20
12061;BMP180;6091;51.432;6.880;2024-03-22T12:50:27;100826.00;;;26.10
12061;BMP180;6091;51.432;6.880;2024-03-22T12:52:53;100819.00;;;26.10
12061;BMP180;6091;51.432;6.880;2024-03-22T12:55:19;100821.00;;;26.10
12061;BMP180;6091;51.432;6.880;2024-03-22T12:57:47;100813.00;;;26.10
12061;BMP180;6091;51.432;6.880;2024-03-22T13:00:14;100803.00;;;26.10
12061;BMP180;6091;51.432;6.880;2024-03-22T13:02:45;100801.00;;;26.10
12061;BMP180;6091;51.432;6.880;2024-03-22T13:05:12;100799.00;;;26.00
12061;BMP180;6091;51.432;6.880;2024-03-22T13:07:39;100803.00;;;26.00
12061;BMP180;6091;51.432;6.880;2024-03-22T13:10:06;100792.00;;;26.00
12061;BMP180;6091;51.432;6.880;2024-03-22T13:12:33;100795.00;;;26.00
12061;BMP180;6091;51.432;6.880;2024-03-22T13:15:04;100798.00;;;26.00
12061;BMP180;6091;51.432;6.880;2024-03-22T13:17:30;100793.00;;;26.00
12061;BMP180;6091;51.432;6.880;2024-03-22T13:19:56;100788.00;;;25.90
12061;BMP180;6091;51.432;6.880;2024-03-22T13:22:22;100791.00;;;25.90
12061;BMP180;6091;51.432;6.880;2024-03-22T13:24:48;100787.00;;;25.90
12061;BMP180;6091;51.432;6.880;2024-03-22T13:27:17;100788.00;;;25.90
12061;BMP180;6091;51.432;6.880;2024-03-22T13:29:43;100781.00;;;25.90
12061;BMP180;6091;51.432;6.880;2024-03-22T13:32:10;100781.00;;;25.90
12061;BMP180;6091;51.432;6.880;2024-03-22T13:34:39;100770.00;;;25.90
12061;BMP180;6091;51.432;6.880;2024-03-22T13:37:05;100771.00;;;25.90
12061;BMP180;6091;51.432;6.880;2024-03-22T13:39:34;100766.00;;;25.90
12061;BMP180;6091;51.432;6.880;2024-03-22T13:42:02;100765.00;;;25.90
12061;BMP180;6091;51.432;6.880;2024-03-22T13:44:28;100759.00;;;25.90
12061;BMP180;6091;51.432;6.880;2024-03-22T13:46:55;100747.00;;;25.90
12061;BMP180;6091;51.432;6.880;2024-03-22T13:49:21;100749.00;;;25.90
12061;BMP180;6091;51.432;6.880;2024-03-22T13:51:48;100743.00;;;25.90
12061;BMP180;6091;51.432;6.880;2024-03-22T13:54:14;100750.00;;;25.90
12061;BMP180;6091;51.432;6.880;2024-03-22T13:56:40;100741.00;;;25.90
12061;BMP180;6091;51.432;6.880;2024-03-22T13:59:07;100738.00;;;25.90
12061;BMP180;6091;51.432;6.880;2024-03-22T14:01:38;100741.00;;;25.90
12061;BMP180;6091;51.432;6.880;2024-03-22T14:04:05;100734.00;;;25.90
12061;BMP180;6091;51.432;6.880;2024-03-22T14:06:32;100734.00;;;26.00
12061;BMP180;6091;51.432;6.880;2024-03-22T14:09:00;100723.00;;;26.00
12061;BMP180;6091;51.432;6.880;2024-03-22T14:11:28;100737.00;;;26.00